sensor_id;sensor_type;location;lat;lon;timestamp;pressure;altitude;pressure_sealevel;temperature;humidity
54854;BME280;40747;49.480;8.658;2023-07-16T00:00:46;100010.81;;;21.17;100.00
54854;BME280;40747;49.480;8.658;2023-07-16T00:03:11;99999.16;;;21.18;100.00
54854;BME280;40747;49.480;8.658;2023-07-16T00:05:39;100012.53;;;21.18;100.00
54854;BME280;40747;49.480;8.658;2023-07-16T00:08:04;99996.56;;;21.16;100.00
54854;BME280;40747;49.480;8.658;2023-07-16T00:10:29;100001.44;;;21.11;100.00
54854;BME280;40747;49.480;8.658;2023-07-16T00:12:55;100000.25;;;21.04;100.00
54854;BME280;40747;49.480;8.658;2023-07-16T00:15:21;100035.63;;;21.07;100.00
54854;BME280;40747;49.480;8.658;2023-07-16T00:17:47;100076.78;;;20.95;100.00
54854;BME280;40747;49.480;8.658;2023-07-16T00:20:12;100101.28;;;20.66;100.00
54854;BME280;40747;49.480;8.658;2023-07-16T00:22:37;100106.59;;;20.55;100.00
54854;BME280;40747;49.480;8.658;2023-07-16T00:25:05;100103.31;;;20.51;100.00
54854;BME280;40747;49.480;8.658;2023-07-16T00:27:30;100103.41;;;20.50;100.00
54854;BME280;40747;49.480;8.658;2023-07-16T00:29:56;100093.69;;;20.60;100.00
54854;BME280;40747;49.480;8.658;2023-07-16T00:32:21;100069.16;;;20.66;100.00
54854;BME280;40747;49.480;8.658;2023-07-16T00:34:46;100037.41;;;20.61;100.00
54854;BME280;40747;49.480;8.658;2023-07-16T00:37:12;100028.88;;;20.68;100.00
54854;BME280;40747;49.480;8.658;2023-07-16T00:39:37;100052.66;;;20.72;100.00
54854;BME280;40747;49.480;8.658;2023-07-16T00:42:02;100077.38;;;20.76;100.00
54854;BME280;40747;49.480;8.658;2023-07-16T00:44:28;100071.81;;;20.66;100.00
54854;BME280;40747;49.480;8.658;2023-07-16T00:46:53;100065.47;;;20.56;100.00
54854;BME280;40747;49.480;8.658;2023-07-16T00:49:18;100035.81;;;20.48;100.00
54854;BME280;40747;49.480;8.658;2023-07-16T00:51:44;100012.56;;;20.48;100.00
54854;BME280;40747;49.480;8.658;2023-07-16T00:54:09;99993.63;;;20.51;100.00
54854;BME280;40747;49.480;8.658;2023-07-16T00:56:37;100042.63;;;20.52;100.00
54854;BME280;40747;49.480;8.658;2023-07-16T00:59:02;100071.34;;;20.25;100.00
54854;BME280;40747;49.480;8.658;2023-07-16T01:01:28;100081.91;;;20.16;100.00
54854;BME280;40747;49.480;8.658;2023-07-16T01:03:53;100091.66;;;20.04;100.00
54854;BME280;40747;49.480;8.658;2023-07-16T01:08:57;100116.34;;;20.07;100.00
54854;BME280;40747;49.480;8.658;2023-07-16T01:11:23;100106.91;;;19.90;100.00
54854;BME280;40747;49.480;8.658;2023-07-16T01:13:50;100102.84;;;19.97;100.00
54854;BME280;40747;49.480;8.658;2023-07-16T01:16:21;100124.63;;;20.04;100.00
54854;BME280;40747;49.480;8.658;2023-07-16T01:18:48;100114.25;;;20.00;100.00
54854;BME280;40747;49.480;8.658;2023-07-16T01:21:13;100135.75;;;19.98;100.00
54854;BME280;40747;49.480;8.658;2023-07-16T01:24:00;100152.34;;;19.90;100.00
54854;BME280;40747;49.480;8.658;2023-07-16T01:31:55;100154.09;;;19.65;100.00
54854;BME280;40747;49.480;8.658;2023-07-16T01:34:24;100146.09;;;19.65;100.00
54854;BME280;40747;49.480;8.658;2023-07-16T01:36:50;100136.25;;;19.53;100.00
54854;BME280;40747;49.480;8.658;2023-07-16T01:39:16;100141.19;;;19.46;100.00
54854;BME280;40747;49.480;8.658;2023-07-16T01:41:41;100141.81;;;19.37;100.00
54854;BME280;40747;49.480;8.658;2023-07-16T01:44:07;100136.59;;;19.48;100.00
54854;BME280;40747;49.480;8.658;2023-07-16T01:46:32;100137.00;;;19.42;100.00
54854;BME280;40747;49.480;8.658;2023-07-16T01:48:57;100134.28;;;19.31;100.00
54854;BME280;40747;49.480;8.658;2023-07-16T01:51:23;100134.38;;;19.16;100.00
54854;BME280;40747;49.480;8.658;2023-07-16T01:53:48;100132.66;;;19.28;100.00
54854;BME280;40747;49.480;8.658;2023-07-16T01:56:13;100144.94;;;19.31;100.00
54854;BME280;40747;49.480;8.658;2023-07-16T01:58:38;100144.06;;;19.30;100.00
54854;BME280;40747;49.480;8.658;2023-07-16T02:01:04;100145.91;;;19.17;100.00
54854;BME280;40747;49.480;8.658;2023-07-16T02:03:29;100157.53;;;19.16;100.00
54854;BME280;40747;49.480;8.658;2023-07-16T02:05:54;100156.38;;;19.20;100.00
54854;BME280;40747;49.480;8.658;2023-07-16T02:08:20;100155.41;;;19.21;100.00
54854;BME280;40747;49.480;8.658;2023-07-16T02:10:47;100168.97;;;19.18;100.00
54854;BME280;40747;49.480;8.658;2023-07-16T02:13:14;100175.34;;;19.03;100.00
54854;BME280;40747;49.480;8.658;2023-07-16T02:15:40;100184.88;;;19.07;100.00
54854;BME280;40747;49.480;8.658;2023-07-16T02:18:06;100185.31;;;19.01;100.00
54854;BME280;40747;49.480;8.658;2023-07-16T02:20:33;100199.50;;;19.01;100.00
54854;BME280;40747;49.480;8.658;2023-07-16T02:22:59;100196.63;;;19.04;100.00
54854;BME280;40747;49.480;8.658;2023-07-16T02:25:25;100191.16;;;18.93;100.00
54854;BME280;40747;49.480;8.658;2023-07-16T02:27:52;100203.34;;;18.97;100.00
54854;BME280;40747;49.480;8.658;2023-07-16T02:30:18;100199.50;;;19.01;100.00
54854;BME280;40747;49.480;8.658;2023-07-16T02:32:45;100201.44;;;19.12;100.00
54854;BME280;40747;49.480;8.658;2023-07-16T02:35:11;100206.88;;;19.10;100.00
54854;BME280;40747;49.480;8.658;2023-07-16T02:37:37;100206.97;;;19.22;100.00
54854;BME280;40747;49.480;8.658;2023-07-16T02:40:03;100192.44;;;19.00;100.00
54854;BME280;40747;49.480;8.658;2023-07-16T02:42:29;100204.00;;;19.13;100.00
54854;BME280;40747;49.480;8.658;2023-07-16T02:44:54;100207.63;;;19.12;100.00
54854;BME280;40747;49.480;8.658;2023-07-16T02:47:19;100218.72;;;19.06;100.00
54854;BME280;40747;49.480;8.658;2023-07-16T02:49:45;100220.13;;;18.84;100.00
54854;BME280;40747;49.480;8.658;2023-07-16T02:52:10;100215.56;;;18.87;100.00
54854;BME280;40747;49.480;8.658;2023-07-16T02:54:36;100215.00;;;18.81;100.00
54854;BME280;40747;49.480;8.658;2023-07-16T02:57:01;100222.06;;;18.82;100.00
54854;BME280;40747;49.480;8.658;2023-07-16T02:59:27;100223.75;;;18.83;100.00
54854;BME280;40747;49.480;8.658;2023-07-16T03:01:52;100235.47;;;18.81;100.00
54854;BME280;40747;49.480;8.658;2023-07-16T03:04:18;100228.44;;;18.67;100.00
54854;BME280;40747;49.480;8.658;2023-07-16T03:06:44;100223.16;;;18.65;100.00
54854;BME280;40747;49.480;8.658;2023-07-16T03:09:09;100217.09;;;18.63;100.00
54854;BME280;40747;49.480;8.658;2023-07-16T03:11:34;100222.94;;;18.56;100.00
54854;BME280;40747;49.480;8.658;2023-07-16T03:13:59;100227.63;;;18.52;100.00
54854;BME280;40747;49.480;8.658;2023-07-16T03:16:25;100237.63;;;18.48;100.00
54854;BME280;40747;49.480;8.658;2023-07-16T03:18:50;100244.13;;;18.44;100.00
54854;BME280;40747;49.480;8.658;2023-07-16T03:21:15;100241.63;;;18.41;100.00
54854;BME280;40747;49.480;8.658;2023-07-16T03:23:41;100241.56;;;18.43;100.00
54854;BME280;40747;49.480;8.658;2023-07-16T03:26:06;100249.63;;;18.41;100.00
54854;BME280;40747;49.480;8.658;2023-07-16T03:28:31;100247.28;;;18.37;100.00
54854;BME280;40747;49.480;8.658;2023-07-16T03:30:56;100246.22;;;18.39;100.00
54854;BME280;40747;49.480;8.658;2023-07-16T03:33:22;100247.06;;;18.40;100.00
54854;BME280;40747;49.480;8.658;2023-07-16T03:35:48;100250.63;;;18.40;100.00
54854;BME280;40747;49.480;8.658;2023-07-16T03:38:14;100253.28;;;18.40;100.00
54854;BME280;40747;49.480;8.658;2023-07-16T03:40:42;100252.78;;;18.48;100.00
54854;BME280;40747;49.480;8.658;2023-07-16T03:43:08;100247.69;;;18.58;100.00
54854;BME280;40747;49.480;8.658;2023-07-16T03:45:33;100241.59;;;18.56;100.00
54854;BME280;40747;49.480;8.658;2023-07-16T03:47:58;100239.22;;;18.51;100.00
54854;BME280;40747;49.480;8.658;2023-07-16T03:50:23;100256.94;;;18.52;100.00
54854;BME280;40747;49.480;8.658;2023-07-16T03:52:49;100260.56;;;18.51;100.00
54854;BME280;40747;49.480;8.658;2023-07-16T03:55:14;100247.66;;;18.30;100.00
54854;BME280;40747;49.480;8.658;2023-07-16T03:57:40;100264.91;;;18.39;100.00
54854;BME280;40747;49.480;8.658;2023-07-16T04:00:06;100274.91;;;18.36;100.00
54854;BME280;40747;49.480;8.658;2023-07-16T04:02:33;100281.50;;;18.15;100.00
54854;BME280;40747;49.480;8.658;2023-07-16T04:04:59;100286.06;;;18.13;100.00
54854;BME280;40747;49.480;8.658;2023-07-16T04:07:24;100278.56;;;18.06;100.00
54854;BME280;40747;49.480;8.658;2023-07-16T04:09:49;100290.84;;;18.08;100.00
54854;BME280;40747;49.480;8.658;2023-07-16T04:12:15;100293.50;;;18.08;100.00
54854;BME280;40747;49.480;8.658;2023-07-16T04:14:40;100288.19;;;18.08;100.00
54854;BME280;40747;49.480;8.658;2023-07-16T04:17:05;100300.84;;;18.05;100.00
54854;BME280;40747;49.480;8.658;2023-07-16T04:19:31;100307.56;;;18.10;100.00
54854;BME280;40747;49.480;8.658;2023-07-16T04:21:56;100303.03;;;18.12;100.00
54854;BME280;40747;49.480;8.658;2023-07-16T04:24:21;100308.25;;;17.99;100.00
54854;BME280;40747;49.480;8.658;2023-07-16T04:26:47;100317.00;;;18.01;100.00
54854;BME280;40747;49.480;8.658;2023-07-16T04:29:13;100307.59;;;17.96;100.00
54854;BME280;40747;49.480;8.658;2023-07-16T04:31:38;100309.78;;;18.04;100.00
54854;BME280;40747;49.480;8.658;2023-07-16T04:34:03;100306.72;;;17.95;100.00
54854;BME280;40747;49.480;8.658;2023-07-16T04:36:28;100306.16;;;18.05;100.00
54854;BME280;40747;49.480;8.658;2023-07-16T04:38:54;100302.41;;;17.93;100.00
54854;BME280;40747;49.480;8.658;2023-07-16T04:41:19;100304.53;;;18.02;100.00
54854;BME280;40747;49.480;8.658;2023-07-16T04:43:44;100322.63;;;18.11;100.00
54854;BME280;40747;49.480;8.658;2023-07-16T04:46:10;100319.75;;;18.14;100.00
54854;BME280;40747;49.480;8.658;2023-07-16T04:48:37;100333.28;;;18.11;100.00
54854;BME280;40747;49.480;8.658;2023-07-16T04:51:02;100316.13;;;18.15;100.00
54854;BME280;40747;49.480;8.658;2023-07-16T04:53:27;100330.44;;;18.29;100.00
54854;BME280;40747;49.480;8.658;2023-07-16T04:55:53;100333.59;;;18.21;100.00
54854;BME280;40747;49.480;8.658;2023-07-16T04:58:18;100333.66;;;18.20;100.00
54854;BME280;40747;49.480;8.658;2023-07-16T05:00:43;100347.19;;;18.16;100.00
54854;BME280;40747;49.480;8.658;2023-07-16T05:03:09;100340.34;;;18.12;100.00
54854;BME280;40747;49.480;8.658;2023-07-16T05:05:34;100346.25;;;18.17;100.00
54854;BME280;40747;49.480;8.658;2023-07-16T05:08:00;100352.72;;;18.13;100.00
54854;BME280;40747;49.480;8.658;2023-07-16T05:10:27;100345.66;;;18.12;100.00
54854;BME280;40747;49.480;8.658;2023-07-16T05:12:52;100351.16;;;18.09;100.00
54854;BME280;40747;49.480;8.658;2023-07-16T05:15:18;100355.44;;;18.12;100.00
54854;BME280;40747;49.480;8.658;2023-07-16T05:17:43;100359.16;;;18.09;100.00
54854;BME280;40747;49.480;8.658;2023-07-16T05:20:09;100366.03;;;18.13;100.00
54854;BME280;40747;49.480;8.658;2023-07-16T05:22:35;100364.69;;;18.21;100.00
54854;BME280;40747;49.480;8.658;2023-07-16T05:25:01;100366.63;;;18.18;100.00
54854;BME280;40747;49.480;8.658;2023-07-16T05:27:26;100366.97;;;18.27;100.00
54854;BME280;40747;49.480;8.658;2023-07-16T05:29:51;100361.56;;;18.14;100.00
54854;BME280;40747;49.480;8.658;2023-07-16T05:32:16;100369.28;;;18.18;100.00
54854;BME280;40747;49.480;8.658;2023-07-16T05:34:42;100358.69;;;18.17;100.00
54854;BME280;40747;49.480;8.658;2023-07-16T05:37:07;100358.53;;;18.20;100.00
54854;BME280;40747;49.480;8.658;2023-07-16T05:39:32;100363.84;;;18.34;100.00
54854;BME280;40747;49.480;8.658;2023-07-16T05:41:57;100365.00;;;18.30;100.00
54854;BME280;40747;49.480;8.658;2023-07-16T05:44:23;100371.53;;;18.25;100.00
54854;BME280;40747;49.480;8.658;2023-07-16T05:46:48;100377.84;;;18.24;100.00
54854;BME280;40747;49.480;8.658;2023-07-16T05:49:13;100379.38;;;18.28;100.00
54854;BME280;40747;49.480;8.658;2023-07-16T05:51:39;100370.22;;;18.32;100.00
54854;BME280;40747;49.480;8.658;2023-07-16T05:54:04;100380.41;;;18.40;100.00
54854;BME280;40747;49.480;8.658;2023-07-16T05:56:29;100363.66;;;18.38;100.00
54854;BME280;40747;49.480;8.658;2023-07-16T05:58:55;100366.13;;;18.41;100.00
54854;BME280;40747;49.480;8.658;2023-07-16T06:01:21;100372.13;;;18.44;100.00
54854;BME280;40747;49.480;8.658;2023-07-16T06:03:46;100371.16;;;18.60;100.00
54854;BME280;40747;49.480;8.658;2023-07-16T06:06:11;100365.44;;;18.66;97.93
54854;BME280;40747;49.480;8.658;2023-07-16T06:08:37;100380.13;;;18.86;98.56
54854;BME280;40747;49.480;8.658;2023-07-16T06:11:02;100382.56;;;18.76;98.12
54854;BME280;40747;49.480;8.658;2023-07-16T06:13:29;100390.91;;;18.84;97.55
54854;BME280;40747;49.480;8.658;2023-07-16T06:15:54;100383.34;;;18.64;96.03
54854;BME280;40747;49.480;8.658;2023-07-16T06:18:19;100393.34;;;18.60;94.66
54854;BME280;40747;49.480;8.658;2023-07-16T06:20:45;100387.91;;;18.76;95.44
54854;BME280;40747;49.480;8.658;2023-07-16T06:23:11;100394.19;;;18.90;94.14
54854;BME280;40747;49.480;8.658;2023-07-16T06:25:37;100398.94;;;18.99;94.48
54854;BME280;40747;49.480;8.658;2023-07-16T06:28:03;100403.50;;;18.97;92.09
54854;BME280;40747;49.480;8.658;2023-07-16T06:30:29;100395.84;;;19.05;93.62
54854;BME280;40747;49.480;8.658;2023-07-16T06:32:55;100391.28;;;19.07;92.58
54854;BME280;40747;49.480;8.658;2023-07-16T06:35:21;100400.19;;;19.21;92.51
54854;BME280;40747;49.480;8.658;2023-07-16T06:37:46;100403.00;;;19.32;91.05
54854;BME280;40747;49.480;8.658;2023-07-16T06:40:12;100393.63;;;19.39;91.42
54854;BME280;40747;49.480;8.658;2023-07-16T06:42:37;100404.09;;;19.42;87.86
54854;BME280;40747;49.480;8.658;2023-07-16T06:45:03;100398.44;;;19.34;87.98
54854;BME280;40747;49.480;8.658;2023-07-16T06:47:28;100407.72;;;19.28;89.08
54854;BME280;40747;49.480;8.658;2023-07-16T06:49:54;100395.53;;;19.37;88.44
54854;BME280;40747;49.480;8.658;2023-07-16T06:52:22;100410.47;;;19.54;90.02
54854;BME280;40747;49.480;8.658;2023-07-16T06:54:49;100409.19;;;19.60;89.09
54854;BME280;40747;49.480;8.658;2023-07-16T06:57:15;100408.19;;;19.48;87.16
54854;BME280;40747;49.480;8.658;2023-07-16T06:59:40;100421.63;;;19.74;87.39
54854;BME280;40747;49.480;8.658;2023-07-16T07:02:06;100416.63;;;19.82;87.17
54854;BME280;40747;49.480;8.658;2023-07-16T07:04:31;100420.72;;;19.88;85.71
54854;BME280;40747;49.480;8.658;2023-07-16T07:06:57;100419.72;;;19.76;85.29
54854;BME280;40747;49.480;8.658;2023-07-16T07:09:22;100418.16;;;19.59;85.01
54854;BME280;40747;49.480;8.658;2023-07-16T07:11:47;100415.06;;;19.65;85.72
54854;BME280;40747;49.480;8.658;2023-07-16T07:14:13;100424.25;;;19.61;85.39
54854;BME280;40747;49.480;8.658;2023-07-16T07:16:38;100426.13;;;19.73;86.52
54854;BME280;40747;49.480;8.658;2023-07-16T07:19:05;100425.22;;;19.60;84.78
54854;BME280;40747;49.480;8.658;2023-07-16T07:21:30;100423.97;;;19.65;85.60
54854;BME280;40747;49.480;8.658;2023-07-16T07:23:55;100427.56;;;19.92;84.46
54854;BME280;40747;49.480;8.658;2023-07-16T07:26:21;100418.28;;;20.10;85.79
54854;BME280;40747;49.480;8.658;2023-07-16T07:28:46;100424.78;;;20.19;82.97
54854;BME280;40747;49.480;8.658;2023-07-16T07:31:11;100425.84;;;20.17;82.23
54854;BME280;40747;49.480;8.658;2023-07-16T07:33:37;100428.00;;;20.11;82.55
54854;BME280;40747;49.480;8.658;2023-07-16T07:36:02;100419.03;;;20.12;82.35
54854;BME280;40747;49.480;8.658;2023-07-16T07:38:28;100429.41;;;20.17;81.71
54854;BME280;40747;49.480;8.658;2023-07-16T07:40:53;100419.56;;;20.30;80.67
54854;BME280;40747;49.480;8.658;2023-07-16T07:43:19;100427.16;;;20.37;80.34
54854;BME280;40747;49.480;8.658;2023-07-16T07:45:44;100434.75;;;20.56;80.43
54854;BME280;40747;49.480;8.658;2023-07-16T07:48:09;100429.50;;;20.54;79.81
54854;BME280;40747;49.480;8.658;2023-07-16T07:50:35;100435.78;;;20.79;79.00
54854;BME280;40747;49.480;8.658;2023-07-16T07:53:00;100434.84;;;21.17;77.96
54854;BME280;40747;49.480;8.658;2023-07-16T07:55:25;100441.06;;;21.18;74.93
54854;BME280;40747;49.480;8.658;2023-07-16T07:57:51;100428.75;;;21.15;75.68
54854;BME280;40747;49.480;8.658;2023-07-16T08:00:16;100428.28;;;21.45;75.75
54854;BME280;40747;49.480;8.658;2023-07-16T08:02:41;100435.97;;;21.50;75.13
54854;BME280;40747;49.480;8.658;2023-07-16T08:05:07;100438.41;;;21.53;75.48
54854;BME280;40747;49.480;8.658;2023-07-16T08:07:32;100430.84;;;21.71;75.34
54854;BME280;40747;49.480;8.658;2023-07-16T08:09:58;100445.38;;;21.80;72.68
54854;BME280;40747;49.480;8.658;2023-07-16T08:12:23;100439.41;;;21.76;72.67
54854;BME280;40747;49.480;8.658;2023-07-16T08:14:49;100436.97;;;22.20;73.16
54854;BME280;40747;49.480;8.658;2023-07-16T08:17:14;100431.03;;;22.73;71.68
54854;BME280;40747;49.480;8.658;2023-07-16T08:19:41;100425.78;;;22.61;69.97
54854;BME280;40747;49.480;8.658;2023-07-16T08:22:07;100427.13;;;22.78;70.91
54854;BME280;40747;49.480;8.658;2023-07-16T08:24:33;100425.78;;;22.83;69.71
54854;BME280;40747;49.480;8.658;2023-07-16T08:26:58;100436.63;;;22.93;68.84
54854;BME280;40747;49.480;8.658;2023-07-16T08:29:23;100430.00;;;23.08;67.14
54854;BME280;40747;49.480;8.658;2023-07-16T08:31:49;100427.13;;;22.78;68.12
54854;BME280;40747;49.480;8.658;2023-07-16T08:34:14;100424.88;;;22.94;69.26
54854;BME280;40747;49.480;8.658;2023-07-16T08:36:39;100426.94;;;23.13;68.73
54854;BME280;40747;49.480;8.658;2023-07-16T08:39:05;100418.88;;;23.57;66.17
54854;BME280;40747;49.480;8.658;2023-07-16T08:41:31;100434.56;;;23.73;68.63
54854;BME280;40747;49.480;8.658;2023-07-16T08:43:56;100429.78;;;23.77;66.83
54854;BME280;40747;49.480;8.658;2023-07-16T08:46:22;100431.59;;;24.30;68.61
54854;BME280;40747;49.480;8.658;2023-07-16T08:48:48;100433.44;;;23.76;64.79
54854;BME280;40747;49.480;8.658;2023-07-16T08:51:17;100430.66;;;23.45;66.68
54854;BME280;40747;49.480;8.658;2023-07-16T08:53:46;100410.03;;;23.66;66.25
54854;BME280;40747;49.480;8.658;2023-07-16T08:56:12;100426.38;;;24.17;64.41
54854;BME280;40747;49.480;8.658;2023-07-16T08:58:38;100419.72;;;24.73;62.88
54854;BME280;40747;49.480;8.658;2023-07-16T09:01:05;100425.19;;;25.02;60.30
54854;BME280;40747;49.480;8.658;2023-07-16T09:03:31;100437.09;;;24.59;61.55
54854;BME280;40747;49.480;8.658;2023-07-16T09:05:56;100425.81;;;24.65;62.69
54854;BME280;40747;49.480;8.658;2023-07-16T09:08:22;100439.53;;;24.41;63.11
54854;BME280;40747;49.480;8.658;2023-07-16T09:10:58;100430.94;;;24.68;61.06
54854;BME280;40747;49.480;8.658;2023-07-16T09:13:24;100428.38;;;24.46;60.31
54854;BME280;40747;49.480;8.658;2023-07-16T09:15:57;100439.09;;;24.36;61.85
54854;BME280;40747;49.480;8.658;2023-07-16T09:18:26;100433.16;;;23.58;61.85
54854;BME280;40747;49.480;8.658;2023-07-16T09:20:56;100439.28;;;23.60;62.88
54854;BME280;40747;49.480;8.658;2023-07-16T09:23:29;100443.84;;;24.01;64.05
54854;BME280;40747;49.480;8.658;2023-07-16T09:25:55;100437.44;;;24.14;60.10
54854;BME280;40747;49.480;8.658;2023-07-16T09:28:25;100436.09;;;23.87;61.08
54854;BME280;40747;49.480;8.658;2023-07-16T09:30:52;100425.09;;;24.11;60.48
54854;BME280;40747;49.480;8.658;2023-07-16T09:33:22;100423.25;;;24.12;60.74
54854;BME280;40747;49.480;8.658;2023-07-16T09:35:51;100441.97;;;23.81;62.51
54854;BME280;40747;49.480;8.658;2023-07-16T09:38:21;100445.53;;;24.45;60.25
54854;BME280;40747;49.480;8.658;2023-07-16T09:40:51;100439.59;;;25.32;59.92
54854;BME280;40747;49.480;8.658;2023-07-16T09:43:17;100417.38;;;24.80;57.57
54854;BME280;40747;49.480;8.658;2023-07-16T09:45:43;100437.91;;;24.50;57.95
54854;BME280;40747;49.480;8.658;2023-07-16T09:48:10;100439.81;;;24.59;57.74
54854;BME280;40747;49.480;8.658;2023-07-16T09:50:36;100442.44;;;24.49;58.18
54854;BME280;40747;49.480;8.658;2023-07-16T09:53:04;100426.72;;;24.85;56.97
54854;BME280;40747;49.480;8.658;2023-07-16T09:55:34;100431.97;;;24.87;57.84
54854;BME280;40747;49.480;8.658;2023-07-16T09:58:01;100439.50;;;24.93;57.95
54854;BME280;40747;49.480;8.658;2023-07-16T10:00:29;100434.16;;;25.13;56.77
54854;BME280;40747;49.480;8.658;2023-07-16T10:02:57;100435.34;;;25.30;55.48
54854;BME280;40747;49.480;8.658;2023-07-16T10:05:25;100428.28;;;25.58;55.85
54854;BME280;40747;49.480;8.658;2023-07-16T10:07:54;100438.59;;;26.02;56.51
54854;BME280;40747;49.480;8.658;2023-07-16T10:10:20;100436.56;;;26.33;55.96
54854;BME280;40747;49.480;8.658;2023-07-16T10:13:01;100436.22;;;25.79;55.06
54854;BME280;40747;49.480;8.658;2023-07-16T10:15:28;100434.53;;;25.49;56.03
54854;BME280;40747;49.480;8.658;2023-07-16T10:17:55;100422.03;;;25.48;54.91
54854;BME280;40747;49.480;8.658;2023-07-16T10:20:35;100423.97;;;26.14;54.25
54854;BME280;40747;49.480;8.658;2023-07-16T10:23:15;100428.13;;;26.46;52.78
54854;BME280;40747;49.480;8.658;2023-07-16T10:25:58;100412.31;;;26.89;53.80
54854;BME280;40747;49.480;8.658;2023-07-16T10:28:27;100422.09;;;26.62;51.77
54854;BME280;40747;49.480;8.658;2023-07-16T10:30:52;100416.09;;;26.69;52.58
54854;BME280;40747;49.480;8.658;2023-07-16T10:33:21;100421.56;;;26.01;51.88
54854;BME280;40747;49.480;8.658;2023-07-16T10:35:46;100417.63;;;25.76;52.70
54854;BME280;40747;49.480;8.658;2023-07-16T10:38:12;100419.16;;;25.79;53.56
54854;BME280;40747;49.480;8.658;2023-07-16T10:40:42;100415.00;;;26.61;53.39
54854;BME280;40747;49.480;8.658;2023-07-16T10:43:08;100411.91;;;26.56;51.14
54854;BME280;40747;49.480;8.658;2023-07-16T10:45:33;100427.66;;;26.23;51.55
54854;BME280;40747;49.480;8.658;2023-07-16T10:47:59;100415.84;;;26.62;50.86
54854;BME280;40747;49.480;8.658;2023-07-16T10:50:25;100412.34;;;26.52;53.50
54854;BME280;40747;49.480;8.658;2023-07-16T10:52:51;100424.47;;;26.38;51.52
54854;BME280;40747;49.480;8.658;2023-07-16T10:55:17;100417.47;;;26.45;50.20
54854;BME280;40747;49.480;8.658;2023-07-16T10:57:43;100406.22;;;26.87;50.19
54854;BME280;40747;49.480;8.658;2023-07-16T11:00:10;100418.94;;;26.67;51.17
54854;BME280;40747;49.480;8.658;2023-07-16T11:02:39;100413.69;;;26.65;49.98
54854;BME280;40747;49.480;8.658;2023-07-16T11:05:13;100407.41;;;26.75;49.18
54854;BME280;40747;49.480;8.658;2023-07-16T11:07:43;100399.94;;;26.59;49.85
54854;BME280;40747;49.480;8.658;2023-07-16T11:10:09;100399.50;;;26.91;49.52
54854;BME280;40747;49.480;8.658;2023-07-16T11:12:35;100395.38;;;27.69;51.45
54854;BME280;40747;49.480;8.658;2023-07-16T11:15:00;100391.06;;;28.29;47.98
54854;BME280;40747;49.480;8.658;2023-07-16T11:17:25;100399.41;;;28.09;47.45
54854;BME280;40747;49.480;8.658;2023-07-16T11:19:52;100407.03;;;27.34;49.32
54854;BME280;40747;49.480;8.658;2023-07-16T11:22:18;100399.47;;;28.00;48.02
54854;BME280;40747;49.480;8.658;2023-07-16T11:24:44;100397.28;;;27.77;48.12
54854;BME280;40747;49.480;8.658;2023-07-16T11:27:26;100408.31;;;27.84;47.88
54854;BME280;40747;49.480;8.658;2023-07-16T11:29:53;100398.22;;;27.31;47.72
54854;BME280;40747;49.480;8.658;2023-07-16T11:34:55;100401.78;;;27.14;49.00
54854;BME280;40747;49.480;8.658;2023-07-16T11:37:20;100395.00;;;27.28;49.22
54854;BME280;40747;49.480;8.658;2023-07-16T11:39:46;100397.38;;;27.13;49.43
54854;BME280;40747;49.480;8.658;2023-07-16T11:42:12;100394.34;;;26.32;49.54
54854;BME280;40747;49.480;8.658;2023-07-16T11:44:37;100402.66;;;26.01;50.12
54854;BME280;40747;49.480;8.658;2023-07-16T11:47:03;100397.31;;;25.82;50.98
54854;BME280;40747;49.480;8.658;2023-07-16T11:49:29;100394.16;;;25.87;53.58
54854;BME280;40747;49.480;8.658;2023-07-16T11:51:55;100383.09;;;26.65;51.09
54854;BME280;40747;49.480;8.658;2023-07-16T11:54:20;100384.44;;;26.23;50.54
54854;BME280;40747;49.480;8.658;2023-07-16T11:56:45;100355.28;;;25.79;52.27
54854;BME280;40747;49.480;8.658;2023-07-16T11:59:12;100405.53;;;25.90;52.68
54854;BME280;40747;49.480;8.658;2023-07-16T12:01:37;100381.97;;;25.92;53.35
54854;BME280;40747;49.480;8.658;2023-07-16T12:04:03;100382.09;;;25.91;51.63
54854;BME280;40747;49.480;8.658;2023-07-16T12:06:28;100380.50;;;26.45;50.87
54854;BME280;40747;49.480;8.658;2023-07-16T12:08:53;100373.28;;;26.46;51.36
54854;BME280;40747;49.480;8.658;2023-07-16T12:11:20;100368.59;;;26.66;50.83
54854;BME280;40747;49.480;8.658;2023-07-16T12:13:45;100370.88;;;26.98;49.92
54854;BME280;40747;49.480;8.658;2023-07-16T12:16:11;100366.78;;;27.12;48.63
54854;BME280;40747;49.480;8.658;2023-07-16T12:18:36;100367.31;;;27.16;48.36
54854;BME280;40747;49.480;8.658;2023-07-16T12:21:02;100363.59;;;27.17;48.65
54854;BME280;40747;49.480;8.658;2023-07-16T12:23:27;100363.38;;;27.28;48.54
54854;BME280;40747;49.480;8.658;2023-07-16T12:25:52;100364.00;;;27.22;48.35
54854;BME280;40747;49.480;8.658;2023-07-16T12:28:18;100364.47;;;27.36;46.65
54854;BME280;40747;49.480;8.658;2023-07-16T12:30:43;100354.31;;;27.38;48.07
54854;BME280;40747;49.480;8.658;2023-07-16T12:33:08;100354.50;;;27.18;48.01
54854;BME280;40747;49.480;8.658;2023-07-16T12:35:33;100354.22;;;27.39;45.72
54854;BME280;40747;49.480;8.658;2023-07-16T12:37:59;100326.59;;;27.36;47.90
54854;BME280;40747;49.480;8.658;2023-07-16T12:40:25;100352.13;;;27.77;47.42
54854;BME280;40747;49.480;8.658;2023-07-16T12:42:51;100351.56;;;27.11;47.58
54854;BME280;40747;49.480;8.658;2023-07-16T12:45:16;100358.94;;;26.63;48.31
54854;BME280;40747;49.480;8.658;2023-07-16T12:47:41;100358.34;;;26.70;50.73
54854;BME280;40747;49.480;8.658;2023-07-16T12:50:07;100360.34;;;26.95;47.82